createdAt,value
2023-02-20T00:02:18.396Z,101647.88
2023-02-20T00:04:46.973Z,101657.75
2023-02-20T00:07:15.862Z,101661.47
2023-02-20T00:09:42.324Z,101666.50
2023-02-20T00:12:08.866Z,101671.47
2023-02-20T00:14:38.180Z,101667.94
2023-02-20T00:17:07.255Z,101669.81
2023-02-20T00:19:33.635Z,101668.38
2023-02-20T00:21:59.984Z,101664.22
2023-02-20T00:24:27.054Z,101660.06
2023-02-20T00:26:53.905Z,101667.06
2023-02-20T00:29:23.248Z,101670.19
2023-02-20T00:31:55.341Z,101659.75
2023-02-20T00:34:23.266Z,101664.47
2023-02-20T00:36:49.622Z,101654.59
2023-02-20T00:39:16.253Z,101666.97
2023-02-20T00:41:42.737Z,101663.09
2023-02-20T00:44:09.184Z,101664.66
2023-02-20T00:46:35.593Z,101659.03
2023-02-20T00:49:01.975Z,101661.91
2023-02-20T00:51:31.456Z,101659.28
2023-02-20T00:53:57.817Z,101654.94
2023-02-20T00:56:24.214Z,101654.31
2023-02-20T00:58:53.382Z,101652.53
2023-02-20T01:01:20.015Z,101652.09
2023-02-20T01:03:46.484Z,101656.00
2023-02-20T01:06:13.140Z,101663.91
2023-02-20T01:08:44.789Z,101663.00
2023-02-20T01:11:13.504Z,101663.66
2023-02-20T01:13:40.539Z,101654.94
2023-02-20T01:16:07.890Z,101659.03
2023-02-20T01:18:34.400Z,101652.66
2023-02-20T01:21:09.372Z,101667.00
2023-02-20T01:23:40.051Z,101659.91
2023-02-20T01:26:16.812Z,101652.41
2023-02-20T01:28:50.457Z,101653.66
2023-02-20T01:31:24.348Z,101656.28
2023-02-20T01:34:01.107Z,101655.28
2023-02-20T01:36:32.372Z,101660.84
2023-02-20T01:42:17.946Z,101655.94
2023-02-20T01:44:45.001Z,101649.03
2023-02-20T01:47:25.182Z,101659.25
2023-02-20T01:49:55.115Z,101645.63
2023-02-20T01:52:27.744Z,101659.41
2023-02-20T01:55:01.796Z,101662.50
2023-02-20T01:57:32.191Z,101647.59
2023-02-20T02:00:15.229Z,101650.91
2023-02-20T02:02:49.955Z,101652.03
2023-02-20T02:05:18.547Z,101644.28
2023-02-20T02:07:45.661Z,101649.44
2023-02-20T02:10:24.548Z,101640.50
2023-02-20T02:12:53.851Z,101634.34
2023-02-20T02:15:22.713Z,101640.97
2023-02-20T02:18:20.548Z,101623.53
2023-02-20T02:21:11.699Z,101633.22
2023-02-20T02:24:02.434Z,101623.16
2023-02-20T02:27:22.317Z,101635.06
2023-02-20T02:30:26.803Z,101628.56
2023-02-20T02:33:14.618Z,101629.41
2023-02-20T02:36:04.441Z,101627.94
2023-02-20T02:38:54.789Z,101630.22
2023-02-20T02:41:30.829Z,101632.81
2023-02-20T02:44:07.984Z,101615.13
2023-02-20T02:46:50.948Z,101620.78
2023-02-20T02:49:28.861Z,101611.31
2023-02-20T02:51:56.641Z,101619.31
2023-02-20T02:54:27.659Z,101609.38
2023-02-20T02:57:20.742Z,101624.44
2023-02-20T02:59:51.941Z,101616.72
2023-02-20T03:02:21.417Z,101612.75
2023-02-20T03:04:51.546Z,101617.56
2023-02-20T03:07:19.910Z,101610.06
2023-02-20T03:09:55.665Z,101615.00
2023-02-20T03:12:25.106Z,101609.00
2023-02-20T03:15:24.264Z,101621.97
2023-02-20T03:18:10.840Z,101619.53
2023-02-20T03:20:44.576Z,101615.84
2023-02-20T03:23:34.138Z,101622.59
2023-02-20T03:26:19.134Z,101615.34
2023-02-20T03:28:57.795Z,101615.47
2023-02-20T03:31:33.955Z,101601.09
2023-02-20T03:34:29.054Z,101605.28
2023-02-20T03:37:33.568Z,101598.63
2023-02-20T03:40:22.745Z,101597.44
2023-02-20T03:43:12.384Z,101597.44
2023-02-20T03:45:42.002Z,101598.56
2023-02-20T03:48:24.536Z,101597.44
2023-02-20T03:50:51.043Z,101589.97
2023-02-20T03:53:17.669Z,101596.59
2023-02-20T03:55:47.067Z,101601.91
2023-02-20T03:58:17.154Z,101599.56
2023-02-20T04:00:46.282Z,101603.00
2023-02-20T04:03:18.768Z,101607.66
2023-02-20T04:05:47.289Z,101611.97
2023-02-20T04:08:31.381Z,101620.72
2023-02-20T04:11:04.818Z,101616.28
2023-02-20T04:13:33.703Z,101623.88
2023-02-20T04:16:02.258Z,101633.97
2023-02-20T04:18:30.591Z,101623.25
2023-02-20T04:21:01.245Z,101616.63
2023-02-20T04:23:31.067Z,101621.16
2023-02-20T04:26:03.474Z,101628.31
2023-02-20T04:28:30.548Z,101624.13
2023-02-20T04:30:57.542Z,101631.88
2023-02-20T04:33:24.186Z,101624.75
2023-02-20T04:35:54.717Z,101618.47
2023-02-20T04:38:21.356Z,101621.31
2023-02-20T04:40:50.731Z,101617.38
2023-02-20T04:43:17.252Z,101611.97
2023-02-20T04:45:43.932Z,101618.47
2023-02-20T04:48:10.688Z,101615.41
2023-02-20T04:50:38.150Z,101612.31
2023-02-20T04:53:04.682Z,101606.16
2023-02-20T04:55:31.256Z,101600.50
2023-02-20T04:57:58.125Z,101612.78
2023-02-20T05:00:26.880Z,101608.59
2023-02-20T05:02:53.862Z,101614.59
2023-02-20T05:05:26.602Z,101609.81
2023-02-20T05:07:56.101Z,101620.41
2023-02-20T05:10:23.768Z,101618.31
2023-02-20T05:12:56.421Z,101626.66
2023-02-20T05:15:23.329Z,101632.16
2023-02-20T05:17:50.074Z,101620.84
2023-02-20T05:20:18.389Z,101615.56
2023-02-20T05:22:51.039Z,101621.94
2023-02-20T05:25:17.534Z,101634.34
2023-02-20T05:27:44.455Z,101634.81
2023-02-20T05:30:11.454Z,101625.97
2023-02-20T05:32:38.719Z,101625.34
2023-02-20T05:35:05.935Z,101632.94
2023-02-20T05:37:33.847Z,101617.44
2023-02-20T05:40:01.134Z,101619.41
2023-02-20T05:42:27.619Z,101614.22
2023-02-20T05:44:56.630Z,101612.53
2023-02-20T05:47:23.142Z,101617.63
2023-02-20T05:49:49.792Z,101615.56
2023-02-20T05:52:16.520Z,101609.94
2023-02-20T05:54:45.941Z,101614.19
2023-02-20T05:57:12.935Z,101620.34
2023-02-20T05:59:39.977Z,101612.59
2023-02-20T06:02:06.601Z,101612.47
2023-02-20T06:04:33.306Z,101618.94
2023-02-20T06:07:00.310Z,101614.75
2023-02-20T06:09:29.366Z,101621.59
2023-02-20T06:11:57.149Z,101617.31
2023-02-20T06:14:26.047Z,101614.59
2023-02-20T06:16:52.686Z,101611.81
2023-02-20T06:19:22.547Z,101605.78
2023-02-20T06:21:51.815Z,101599.84
2023-02-20T06:24:18.376Z,101611.38
2023-02-20T06:26:45.919Z,101612.38
2023-02-20T06:29:16.737Z,101604.78
2023-02-20T06:31:43.621Z,101614.31
2023-02-20T06:34:10.678Z,101611.50
2023-02-20T06:36:39.963Z,101606.13
2023-02-20T06:39:08.317Z,101613.56
2023-02-20T06:41:38.071Z,101604.91
2023-02-20T06:44:07.041Z,101605.31
2023-02-20T06:46:42.103Z,101610.47
2023-02-20T06:49:09.751Z,101602.75
2023-02-20T06:51:42.669Z,101605.47
2023-02-20T06:54:12.846Z,101611.66
2023-02-20T06:56:44.494Z,101611.53
2023-02-20T06:59:19.539Z,101610.13
2023-02-20T07:01:46.364Z,101614.13
2023-02-20T07:04:22.082Z,101616.00
2023-02-20T07:06:51.571Z,101627.06
2023-02-20T07:09:22.778Z,101625.28
2023-02-20T07:11:58.413Z,101618.75
2023-02-20T07:14:24.820Z,101624.56
2023-02-20T07:16:54.819Z,101623.97
2023-02-20T07:19:28.985Z,101623.22
2023-02-20T07:22:00.641Z,101628.41
2023-02-20T07:24:29.618Z,101631.38
2023-02-20T07:27:10.071Z,101632.13
2023-02-20T07:29:44.934Z,101635.81
2023-02-20T07:32:11.305Z,101641.34
2023-02-20T07:34:37.789Z,101630.66
2023-02-20T07:37:04.145Z,101631.97
2023-02-20T07:39:30.576Z,101636.53
2023-02-20T07:41:57.755Z,101635.75
2023-02-20T07:44:24.406Z,101640.69
2023-02-20T07:46:55.391Z,101643.34
2023-02-20T07:49:21.941Z,101634.72
2023-02-20T07:51:48.695Z,101632.00
2023-02-20T07:54:22.889Z,101632.03
2023-02-20T07:56:51.935Z,101631.16
2023-02-20T07:59:24.173Z,101634.72
2023-02-20T08:01:50.808Z,101630.75
2023-02-20T08:04:17.572Z,101630.59
2023-02-20T08:06:53.880Z,101625.72
2023-02-20T08:09:22.281Z,101622.00
2023-02-20T08:11:55.258Z,101614.47
2023-02-20T08:14:21.830Z,101610.41
2023-02-20T08:16:49.833Z,101612.91
2023-02-20T08:19:16.471Z,101610.66
2023-02-20T08:21:42.952Z,101608.38
2023-02-20T08:24:14.583Z,101600.13
2023-02-20T08:26:47.735Z,101613.03
2023-02-20T08:29:18.936Z,101617.75
2023-02-20T08:31:45.774Z,101605.44
2023-02-20T08:34:14.199Z,101605.47
2023-02-20T08:36:46.044Z,101598.28
2023-02-20T08:39:15.138Z,101592.19
2023-02-20T08:41:43.817Z,101595.59
2023-02-20T08:44:14.869Z,101598.13
2023-02-20T08:46:55.834Z,101579.97
2023-02-20T08:49:23.555Z,101583.94
2023-02-20T08:51:56.901Z,101585.22
2023-02-20T08:54:26.391Z,101596.00
2023-02-20T08:56:55.865Z,101590.00
2023-02-20T08:59:27.192Z,101582.53
2023-02-20T09:01:54.130Z,101582.69
2023-02-20T09:04:22.092Z,101579.66
2023-02-20T09:06:48.588Z,101590.25
2023-02-20T09:09:15.395Z,101577.72
2023-02-20T09:11:45.017Z,101572.69
2023-02-20T09:14:16.760Z,101576.41
2023-02-20T09:16:45.480Z,101570.38
2023-02-20T09:19:13.939Z,101576.81
2023-02-20T09:21:48.101Z,101570.38
2023-02-20T09:24:17.573Z,101572.16
2023-02-20T09:26:44.020Z,101569.25
2023-02-20T09:29:11.710Z,101569.19
2023-02-20T09:31:38.222Z,101569.88
2023-02-20T09:34:09.080Z,101572.59
2023-02-20T09:36:35.506Z,101578.13
2023-02-20T09:39:02.351Z,101578.81
2023-02-20T09:41:41.300Z,101571.81
2023-02-20T09:44:36.060Z,101573.94
2023-02-20T09:47:15.628Z,101573.72
2023-02-20T09:49:42.815Z,101573.03
2023-02-20T09:52:15.216Z,101565.72
2023-02-20T09:54:46.294Z,101564.28
2023-02-20T09:57:16.848Z,101559.34
2023-02-20T10:00:06.596Z,101545.31
2023-02-20T10:02:39.584Z,101535.22
2023-02-20T10:05:32.294Z,101545.81
2023-02-20T10:07:58.778Z,101552.41
2023-02-20T10:10:41.940Z,101534.72
2023-02-20T10:13:44.986Z,101545.34
2023-02-20T10:16:26.838Z,101538.59
2023-02-20T10:19:26.060Z,101545.22
2023-02-20T10:22:14.033Z,101530.66
2023-02-20T10:24:54.334Z,101531.19
2023-02-20T10:27:30.595Z,101531.31
2023-02-20T10:30:03.971Z,101533.91
2023-02-20T10:32:41.058Z,101520.78
2023-02-20T10:35:21.823Z,101531.03
2023-02-20T10:38:02.984Z,101517.59
2023-02-20T10:40:41.859Z,101518.72
2023-02-20T10:43:37.462Z,101516.03
2023-02-20T10:46:13.104Z,101506.13
2023-02-20T10:48:45.683Z,101509.22
2023-02-20T10:51:19.556Z,101505.34
2023-02-20T10:54:20.181Z,101504.50
2023-02-20T10:56:58.041Z,101508.25
2023-02-20T10:59:39.554Z,101492.25
2023-02-20T11:02:15.936Z,101489.34
2023-02-20T11:04:50.370Z,101504.91
2023-02-20T11:07:22.192Z,101499.06
2023-02-20T11:09:51.274Z,101498.41
2023-02-20T11:12:43.397Z,101490.41
2023-02-20T11:15:14.351Z,101475.22
2023-02-20T11:17:42.258Z,101495.38
2023-02-20T11:20:41.271Z,101474.22
2023-02-20T11:23:08.193Z,101479.34
2023-02-20T11:25:38.859Z,101471.81
2023-02-20T11:28:20.609Z,101474.69
2023-02-20T11:31:06.810Z,101470.28
2023-02-20T11:33:45.587Z,101465.81
2023-02-20T11:36:21.163Z,101470.44
2023-02-20T11:38:51.669Z,101454.88
2023-02-20T11:41:36.326Z,101460.50
2023-02-20T11:44:34.050Z,101469.38
2023-02-20T11:47:30.345Z,101453.28
2023-02-20T11:50:21.105Z,101464.56
2023-02-20T11:53:08.262Z,101448.13
2023-02-20T11:55:54.980Z,101468.13
2023-02-20T11:58:27.583Z,101441.28
2023-02-20T12:00:56.812Z,101437.16
2023-02-20T12:03:29.717Z,101433.88
2023-02-20T12:06:00.497Z,101434.22
2023-02-20T12:08:38.904Z,101435.91
2023-02-20T12:11:11.845Z,101418.28
2023-02-20T12:13:47.432Z,101417.84
2023-02-20T12:16:32.828Z,101397.00
2023-02-20T12:18:59.450Z,101384.81
2023-02-20T12:21:53.848Z,101383.41
2023-02-20T12:24:47.966Z,101412.63
2023-02-20T12:27:23.973Z,101416.03
2023-02-20T12:30:15.868Z,101411.00
2023-02-20T12:32:59.653Z,101402.78
2023-02-20T12:35:39.556Z,101399.88
2023-02-20T12:38:18.356Z,101377.69
2023-02-20T12:41:03.788Z,101386.34
2023-02-20T12:43:48.653Z,101389.75
2023-02-20T12:46:23.530Z,101373.22
2023-02-20T12:49:18.233Z,101376.66
2023-02-20T12:52:05.788Z,101394.38
2023-02-20T12:54:50.642Z,101399.25
2023-02-20T12:57:26.181Z,101377.25
2023-02-20T13:00:05.747Z,101361.94
2023-02-20T13:02:43.031Z,101368.84
2023-02-20T13:05:13.931Z,101388.50
2023-02-20T13:07:52.463Z,101349.28
2023-02-20T13:10:32.603Z,101354.31
2023-02-20T13:12:59.624Z,101370.94
2023-02-20T13:15:47.649Z,101374.66
2023-02-20T13:18:36.993Z,101360.34
2023-02-20T13:21:17.904Z,101378.69
2023-02-20T13:23:44.545Z,101366.06
2023-02-20T13:26:34.154Z,101353.19
2023-02-20T13:29:28.379Z,101368.59
2023-02-20T13:32:17.568Z,101383.16
2023-02-20T13:34:44.242Z,101384.19
2023-02-20T13:37:30.700Z,101378.91
2023-02-20T13:39:57.223Z,101380.50
2023-02-20T13:42:29.892Z,101355.34
2023-02-20T13:44:57.616Z,101377.97
2023-02-20T13:47:38.195Z,101381.38
2023-02-20T13:50:29.704Z,101362.25
2023-02-20T13:52:59.528Z,101349.97
2023-02-20T13:55:27.416Z,101337.09
2023-02-20T13:57:57.462Z,101353.94
2023-02-20T14:00:45.458Z,101355.72
2023-02-20T14:03:28.538Z,101371.06
2023-02-20T14:06:31.275Z,101388.47
2023-02-20T14:09:11.052Z,101375.22
2023-02-20T14:11:39.858Z,101339.47
2023-02-20T14:14:30.898Z,101312.31
2023-02-20T14:17:24.555Z,101331.81
2023-02-20T14:20:08.524Z,101301.72
2023-02-20T14:22:39.938Z,101292.81
2023-02-20T14:25:12.256Z,101303.44
2023-02-20T14:27:43.430Z,101293.19
2023-02-20T14:30:18.549Z,101296.63
2023-02-20T14:32:47.669Z,101282.16
2023-02-20T14:35:38.526Z,101253.78
2023-02-20T14:38:13.849Z,101264.06
2023-02-20T14:40:43.403Z,101259.16
2023-02-20T14:43:23.997Z,101241.94
2023-02-20T14:46:07.105Z,101210.47
2023-02-20T14:48:41.007Z,101224.84
2023-02-20T14:51:16.135Z,101225.59
2023-02-20T14:53:44.739Z,101198.09
2023-02-20T14:56:20.466Z,101232.94
2023-02-20T14:58:47.178Z,101220.88
2023-02-20T15:01:24.948Z,101227.28
2023-02-20T15:04:19.041Z,101221.59
2023-02-20T15:06:48.849Z,101210.38
2023-02-20T15:09:22.679Z,101215.56
2023-02-20T15:11:57.984Z,101220.09
2023-02-20T15:14:28.266Z,101206.94
2023-02-20T15:17:21.550Z,101209.59
2023-02-20T15:19:49.404Z,101188.44
2023-02-20T15:22:47.462Z,101200.25
2023-02-20T15:25:26.062Z,101188.91
2023-02-20T15:28:28.720Z,101176.53
2023-02-20T15:31:10.928Z,101164.06
2023-02-20T15:33:40.709Z,101168.81
2023-02-20T15:36:12.571Z,101160.47
2023-02-20T15:38:39.554Z,101137.13
2023-02-20T15:41:06.433Z,101126.25
2023-02-20T15:43:46.735Z,101148.94
2023-02-20T15:46:18.104Z,101143.53
2023-02-20T15:48:45.083Z,101129.63
2023-02-20T15:51:21.742Z,101118.28
2023-02-20T15:53:49.038Z,101108.06
2023-02-20T15:56:18.644Z,101109.97
2023-02-20T15:58:47.082Z,101103.81
2023-02-20T16:01:13.585Z,101103.09
2023-02-20T16:03:51.513Z,101094.31
2023-02-20T16:06:21.941Z,101091.09
2023-02-20T16:08:50.492Z,101098.53
2023-02-20T16:11:18.976Z,101093.06
2023-02-20T16:13:49.380Z,101095.13
2023-02-20T16:16:25.258Z,101093.00
2023-02-20T16:18:54.878Z,101077.56
2023-02-20T16:21:23.600Z,101066.72
2023-02-20T16:23:54.830Z,101078.31
2023-02-20T16:26:25.592Z,101067.25
2023-02-20T16:28:59.292Z,101072.41
2023-02-20T16:31:54.814Z,101071.59
2023-02-20T16:34:26.559Z,101082.53
2023-02-20T16:36:54.109Z,101071.50
2023-02-20T16:39:26.988Z,101077.91
2023-02-20T16:41:54.910Z,101098.28
2023-02-20T16:44:24.416Z,101070.34
2023-02-20T16:46:50.926Z,101073.97
2023-02-20T16:49:17.660Z,101069.19
2023-02-20T16:51:51.168Z,101070.25
2023-02-20T16:54:18.342Z,101075.06
2023-02-20T16:56:44.737Z,101078.16
2023-02-20T16:59:11.191Z,101080.38
2023-02-20T17:01:39.824Z,101079.03
2023-02-20T17:04:08.976Z,101074.56
2023-02-20T17:06:38.195Z,101073.75
2023-02-20T17:09:07.132Z,101080.34
2023-02-20T17:11:33.495Z,101081.84
2023-02-20T17:14:00.096Z,101079.28
2023-02-20T17:16:31.297Z,101079.91
2023-02-20T17:19:00.053Z,101089.44
2023-02-20T17:21:28.648Z,101097.59
2023-02-20T17:23:55.016Z,101089.19
2023-02-20T17:26:21.553Z,101089.69
2023-02-20T17:28:50.672Z,101100.38
2023-02-20T17:31:17.206Z,101104.25
2023-02-20T17:33:43.688Z,101096.84
2023-02-20T17:36:10.186Z,101100.41
2023-02-20T17:38:36.715Z,101107.47
2023-02-20T17:41:04.074Z,101099.31
2023-02-20T17:43:30.490Z,101111.81
2023-02-20T17:45:56.972Z,101114.50
2023-02-20T17:48:23.308Z,101118.84
2023-02-20T17:50:49.904Z,101109.00
2023-02-20T17:53:16.688Z,101109.25
2023-02-20T17:55:45.425Z,101111.66
2023-02-20T17:58:11.956Z,101110.25
2023-02-20T18:00:38.514Z,101100.81
2023-02-20T18:03:04.946Z,101107.38
2023-02-20T18:05:33.763Z,101104.34
2023-02-20T18:08:02.690Z,101113.78
2023-02-20T18:10:36.565Z,101113.06
2023-02-20T18:13:05.491Z,101107.53
2023-02-20T18:15:34.179Z,101106.63
2023-02-20T18:18:01.339Z,101110.47
2023-02-20T18:20:28.406Z,101106.00
2023-02-20T18:22:58.633Z,101111.41
2023-02-20T18:25:39.615Z,101117.75
2023-02-20T18:28:07.123Z,101114.13
2023-02-20T18:30:34.737Z,101113.28
2023-02-20T18:33:01.686Z,101111.69
2023-02-20T18:35:30.486Z,101097.88
2023-02-20T18:38:01.790Z,101093.41
2023-02-20T18:40:29.292Z,101086.25
2023-02-20T18:42:55.691Z,101090.59
2023-02-20T18:45:24.868Z,101096.03
2023-02-20T18:47:52.674Z,101095.28
2023-02-20T18:50:20.698Z,101097.91
2023-02-20T18:52:48.728Z,101098.66
2023-02-20T18:55:23.226Z,101102.66
2023-02-20T18:57:51.675Z,101102.59
2023-02-20T19:00:21.833Z,101103.41
2023-02-20T19:02:56.289Z,101096.31
2023-02-20T19:05:23.910Z,101103.06
2023-02-20T19:07:50.421Z,101110.75
2023-02-20T19:10:29.580Z,101100.69
2023-02-20T19:12:56.586Z,101103.84
2023-02-20T19:15:24.806Z,101098.00
2023-02-20T19:17:52.312Z,101102.56
2023-02-20T19:20:27.463Z,101103.31
2023-02-20T19:22:55.483Z,101097.78
2023-02-20T19:25:22.650Z,101093.50
2023-02-20T19:27:49.590Z,101092.06
2023-02-20T19:30:16.586Z,101094.38
2023-02-20T19:32:45.409Z,101100.38
2023-02-20T19:35:12.677Z,101097.97
2023-02-20T19:37:39.429Z,101093.25
2023-02-20T19:40:07.758Z,101096.13
2023-02-20T19:42:35.429Z,101094.97
2023-02-20T19:45:05.212Z,101097.41
2023-02-20T19:47:31.708Z,101091.44
2023-02-20T19:49:58.110Z,101091.44
2023-02-20T19:52:26.993Z,101092.59
2023-02-20T19:54:53.671Z,101089.03
2023-02-20T19:57:20.476Z,101094.13
2023-02-20T19:59:47.120Z,101093.59
2023-02-20T20:02:16.277Z,101094.72
2023-02-20T20:04:43.936Z,101095.88
2023-02-20T20:07:11.248Z,101108.25
2023-02-20T20:09:38.365Z,101109.25
2023-02-20T20:12:27.183Z,101114.97
2023-02-20T20:14:54.372Z,101114.22
2023-02-20T20:17:21.393Z,101117.41
2023-02-20T20:20:00.510Z,101112.69
2023-02-20T20:22:29.227Z,101113.69
2023-02-20T20:24:55.951Z,101121.22
2023-02-20T20:27:23.497Z,101118.50
2023-02-20T20:29:53.027Z,101118.94
2023-02-20T20:32:21.612Z,101118.66
2023-02-20T20:34:53.186Z,101119.06
2023-02-20T20:37:27.772Z,101125.13
2023-02-20T20:39:58.890Z,101127.56
2023-02-20T20:42:27.396Z,101135.38
2023-02-20T20:44:58.526Z,101134.81
2023-02-20T20:47:27.988Z,101134.34
2023-02-20T20:49:54.878Z,101136.47
2023-02-20T20:52:24.663Z,101136.03
2023-02-20T20:54:53.095Z,101129.91
2023-02-20T20:57:21.478Z,101129.34
2023-02-20T20:59:48.459Z,101119.78
2023-02-20T21:02:16.146Z,101116.06
2023-02-20T21:04:50.960Z,101117.75
2023-02-20T21:07:20.945Z,101115.34
2023-02-20T21:09:47.299Z,101115.00
2023-02-20T21:12:16.691Z,101116.91
2023-02-20T21:14:43.779Z,101106.38
2023-02-20T21:17:12.499Z,101117.31
2023-02-20T21:19:39.353Z,101101.13
2023-02-20T21:22:06.013Z,101115.34
2023-02-20T21:24:36.121Z,101104.25
2023-02-20T21:27:05.495Z,101105.25
2023-02-20T21:29:32.623Z,101100.84
2023-02-20T21:31:59.135Z,101099.41
2023-02-20T21:34:27.380Z,101097.97
2023-02-20T21:36:54.360Z,101101.25
2023-02-20T21:39:21.415Z,101100.69
2023-02-20T21:42:06.652Z,101102.25
2023-02-20T21:44:38.985Z,101099.22
2023-02-20T21:47:08.190Z,101103.97
2023-02-20T21:49:36.653Z,101103.72
2023-02-20T21:52:05.872Z,101092.16
2023-02-20T21:54:32.572Z,101087.47
2023-02-20T21:57:00.055Z,101090.16
2023-02-20T21:59:29.285Z,101085.91
2023-02-20T22:01:56.076Z,101085.50
2023-02-20T22:04:22.947Z,101092.47
2023-02-20T22:07:09.056Z,101083.03
2023-02-20T22:09:54.797Z,101089.59
2023-02-20T22:12:40.111Z,101081.47
2023-02-20T22:15:25.573Z,101083.72
2023-02-20T22:18:11.542Z,101083.28
2023-02-20T22:20:56.846Z,101087.53
2023-02-20T22:23:42.049Z,101083.41
2023-02-20T22:26:27.110Z,101084.94
2023-02-20T22:29:12.028Z,101076.38
2023-02-20T22:31:57.583Z,101082.75
2023-02-20T22:34:45.242Z,101091.03
2023-02-20T22:37:30.302Z,101080.25
2023-02-20T22:40:15.245Z,101071.66
2023-02-20T22:43:00.126Z,101070.28
2023-02-20T22:45:45.365Z,101071.06
2023-02-20T22:48:30.424Z,101069.50
2023-02-20T22:51:15.677Z,101073.03
2023-02-20T22:54:00.686Z,101064.88
2023-02-20T22:56:48.049Z,101070.69
2023-02-20T22:59:33.159Z,101065.25
2023-02-20T23:02:18.069Z,101063.06
2023-02-20T23:05:04.747Z,101065.69
2023-02-20T23:07:49.980Z,101063.91
2023-02-20T23:10:36.158Z,101061.22
2023-02-20T23:13:21.954Z,101064.00
2023-02-20T23:16:07.305Z,101063.03
2023-02-20T23:18:52.786Z,101061.81
2023-02-20T23:21:37.834Z,101058.66
2023-02-20T23:24:23.214Z,101059.78
2023-02-20T23:27:11.817Z,101057.34
2023-02-20T23:29:57.238Z,101065.44
2023-02-20T23:32:43.218Z,101057.75
2023-02-20T23:35:29.489Z,101058.28
2023-02-20T23:38:16.882Z,101050.56
2023-02-20T23:41:02.106Z,101047.38
2023-02-20T23:43:52.165Z,101051.13
2023-02-20T23:46:37.106Z,101044.84
2023-02-20T23:49:22.404Z,101053.13
2023-02-20T23:52:15.959Z,101043.84
2023-02-20T23:55:02.443Z,101041.03
2023-02-20T23:57:47.874Z,101035.63
